メインページ
METAR-TAF:

METAR-TAF

空港 :

Naval Air Station Whidbey Island (Ault Field)

オークハーバー, ワシントン, アメリカ合衆国

緯度: 48-20-57N, 経度: 122-39-02W, 海抜: 14m

現時点の気象観測

当レポートは24分前の06:56(UTC)に作成
西/南西の風 3kt
気温 8°C
湿度 87%
気圧 1024 hPa
視程: 16.1km
高度5000ftの雲はほとんどない
高度25000ftの雲はほとんどない

METAR: KNUW 240656Z 25003KT 10SM FEW050 FEW250 08/06 A3025 RMK SLP241 T00830056

時間: 00:20 (07:20 UTC)

予報

予報は24日の 07時(UTC)から 25日の 07時(UTC)まで有効
変向風 6kt
視程10km以上
高度4500ftの雲はほとんどない
高度25000ftの雲は散在している
24日の 16時(UTC)から 24日の 18時(UTC)まで徐々に
西/南西の風 6kt
視程10km以上
高度4000ftの千切れ雲あり
高度10000ftの曇り
24日の 23時(UTC)から 25日の 04時(UTC)まで一時的に
高度4000ftの雲は散在している
高度20000ftの千切れ雲あり

TAF: KNUW 2407/2507 VRB06KT 9999 FEW045 SCT250 QNH3018INS BECMG 2416/2418 25006KT 9999 BKN040 OVC100 640509 QNH3010INS TEMPO 2423/2504 SCT040 BKN200 T07/2415Z T14/2423Z FS30111

4,000以上の空港の気象観測と天気予報(METAR報とTAF報)

利用可能な観測所は地図上に黄色い丸と赤い丸で示す。

丸の上にカーソルを重ねると観測所名を参照できる。

次にクリックすると気象観測と天気予報を参照できる。

マップの切り替え:黒色「×」印の緑ボタンをクリックして拡大、「-」印の緑ボタンをクリックして縮小、緑色の三角印をクリックして隣りの地図に切り替え


METAR-TAF: